Time;durP1;ratioP1;P1;durP2;ratioP2;P2;SDS_P1;SDS_P2;PMS_P1;PMS_P2;Temp;Humidity;BMP_temperature;BMP_pressure;BME280_temperature;BME280_humidity;BME280_pressure;Samples;Min_cycle;Max_cycle;Signal;HPM_P1;HPM_P2
2023/05/17 00:00:52;;;;;;;19.00;8.02;;;;;;;14.78;79.92;93339.13;5004163;28;20202;-78
2023/05/17 00:03:18;;;;;;;23.70;9.25;;;;;;;14.75;79.96;93350.56;5004065;28;20022;-77
2023/05/17 00:05:44;;;;;;;14.13;7.90;;;;;;;14.73;80.26;93348.22;5004084;28;20022;-78
2023/05/17 00:08:10;;;;;;;25.55;7.72;;;;;;;14.69;80.28;93341.22;4986714;28;20034;-78
2023/05/17 00:10:35;;;;;;;20.10;7.50;;;;;;;14.61;80.36;93349.13;5004354;28;20026;-78
2023/05/17 00:13:01;;;;;;;20.35;8.27;;;;;;;14.57;80.52;93344.81;5004174;28;20029;-79
2023/05/17 00:15:26;;;;;;;17.13;7.82;;;;;;;14.55;80.18;93337.09;5003784;28;20022;-79
2023/05/17 00:17:52;;;;;;;18.35;7.47;;;;;;;14.53;80.54;93344.72;5004117;28;20026;-79
2023/05/17 00:20:17;;;;;;;23.17;8.40;;;;;;;14.45;80.52;93343.00;5003659;28;20022;-80
2023/05/17 00:22:46;;;;;;;21.13;7.70;;;;;;;14.45;80.72;93340.31;5003804;28;20022;-80
2023/05/17 00:25:11;;;;;;;15.73;7.90;;;;;;;14.42;80.89;93344.47;5003854;28;20097;-79
2023/05/17 00:27:37;;;;;;;20.58;7.93;;;;;;;14.37;80.81;93335.91;5003578;28;20340;-79
2023/05/17 00:30:03;;;;;;;19.27;8.00;;;;;;;14.28;80.93;93343.38;5003880;28;20321;-78
2023/05/17 00:32:28;;;;;;;16.77;7.75;;;;;;;14.28;80.77;93346.06;4986399;28;20319;-79
2023/05/17 00:34:54;;;;;;;13.13;7.82;;;;;;;14.23;80.96;93339.06;5003453;28;20085;-78
2023/05/17 00:37:19;;;;;;;15.20;7.93;;;;;;;14.20;81.04;93331.69;4986434;28;20089;-78
2023/05/17 00:39:45;;;;;;;20.65;7.78;;;;;;;14.15;81.08;93345.38;4986358;28;20041;-78
2023/05/17 00:42:10;;;;;;;23.98;7.35;;;;;;;14.10;81.14;93357.13;5003575;28;20026;-78
2023/05/17 00:44:36;;;;;;;22.85;7.93;;;;;;;14.07;81.32;93338.31;5003305;28;20026;-78
2023/05/17 00:47:02;;;;;;;16.23;7.43;;;;;;;14.04;81.50;93345.13;5002897;28;20368;-78
2023/05/17 00:49:28;;;;;;;15.45;8.18;;;;;;;13.97;81.58;93347.63;5003088;28;20026;-78
2023/05/17 00:51:54;;;;;;;20.70;8.23;;;;;;;13.97;81.37;93348.41;5003481;28;20068;-78
2023/05/17 00:54:21;;;;;;;14.23;7.35;;;;;;;13.92;81.54;93356.72;5002839;28;20195;-78
2023/05/17 00:56:47;;;;;;;13.75;7.15;;;;;;;13.88;81.34;93358.53;4985477;28;20093;-78
2023/05/17 00:59:13;;;;;;;20.83;7.90;;;;;;;13.83;81.58;93351.50;5003533;28;20029;-79
2023/05/17 01:01:42;;;;;;;19.80;6.95;;;;;;;13.82;81.81;93355.31;5003250;28;20018;-79
2023/05/17 01:04:09;;;;;;;12.23;6.70;;;;;;;13.81;81.99;93369.06;5003194;28;20025;-79
2023/05/17 01:06:35;;;;;;;20.05;7.25;;;;;;;13.77;81.63;93352.91;5003115;28;20029;-79
2023/05/17 01:09:02;;;;;;;20.88;7.72;;;;;;;13.77;81.77;93360.94;5002588;28;20216;-79
2023/05/17 01:11:55;;;;;;;24.45;7.68;;;;;;;13.72;81.77;93360.41;4985657;28;20014;-79
2023/05/17 01:14:29;;;;;;;18.23;9.02;;;;;;;13.65;82.03;93350.28;5005070;28;20057;-79
2023/05/17 01:17:05;;;;;;;22.30;8.57;;;;;;;13.62;82.32;93342.97;4992242;28;20070;-79
2023/05/17 01:19:36;;;;;;;27.17;9.93;;;;;;;13.56;82.40;93349.69;5009806;28;20026;-79
2023/05/17 01:22:23;;;;;;;18.45;8.10;;;;;;;13.52;82.65;93352.28;5009727;28;20050;-79
2023/05/17 01:24:49;;;;;;;20.77;8.00;;;;;;;13.52;82.37;93357.63;5009648;28;20057;-79
2023/05/17 01:27:15;;;;;;;22.65;7.47;;;;;;;13.48;82.53;93350.63;5009076;28;20034;-79
2023/05/17 01:29:43;;;;;;;17.15;8.35;;;;;;;13.46;82.15;93347.53;5009597;28;20022;-79
2023/05/17 01:32:10;;;;;;;15.20;7.78;;;;;;;13.43;82.33;93349.75;4991903;28;20264;-79
2023/05/17 01:34:35;;;;;;;20.10;8.18;;;;;;;13.41;82.32;93346.66;5009454;28;20279;-79
2023/05/17 01:37:00;;;;;;;18.50;8.98;;;;;;;13.39;82.18;93351.56;5009160;28;20041;-79
2023/05/17 01:39:27;;;;;;;21.15;7.70;;;;;;;13.38;82.05;93341.19;5009404;28;20228;-79
2023/05/17 01:42:21;;;;;;;23.80;7.88;;;;;;;13.34;81.90;93338.44;4991722;28;20025;-78
2023/05/17 01:44:47;;;;;;;19.17;7.40;;;;;;;13.31;81.81;93343.69;5009271;28;20034;-79
2023/05/17 01:47:29;;;;;;;18.80;7.15;;;;;;;13.24;82.02;93338.88;5009331;28;20312;-79
2023/05/17 01:49:59;;;;;;;18.75;6.65;;;;;;;13.21;81.96;93340.34;5009536;28;20245;-78
2023/05/17 01:52:39;;;;;;;17.63;7.53;;;;;;;13.24;81.70;93341.56;5009299;28;20026;-79
2023/05/17 01:55:09;;;;;;;15.57;6.38;;;;;;;13.22;81.74;93327.75;5009440;28;20025;-79
2023/05/17 01:57:36;;;;;;;19.60;5.80;;;;;;;13.23;81.44;93326.66;5009277;28;20026;-79
2023/05/17 02:00:08;;;;;;;16.23;5.65;;;;;;;13.25;81.21;93319.06;5009120;28;20026;-79
2023/05/17 02:02:35;;;;;;;15.48;6.68;;;;;;;13.23;81.04;93323.97;5009336;28;20367;-79
2023/05/17 02:05:00;;;;;;;13.50;5.38;;;;;;;13.23;80.85;93330.09;5008843;28;20022;-79
2023/05/17 02:07:26;;;;;;;13.93;5.40;;;;;;;13.21;80.80;93331.56;5008705;28;20053;-78
2023/05/17 02:09:51;;;;;;;19.70;6.05;;;;;;;13.16;80.78;93329.88;5009184;28;20085;-79
2023/05/17 02:12:16;;;;;;;20.17;5.97;;;;;;;13.14;80.69;93337.47;5008679;28;20022;-79
2023/05/17 02:14:42;;;;;;;16.40;5.65;;;;;;;13.12;80.44;93339.72;5008754;28;20093;-79
2023/05/17 02:17:09;;;;;;;15.52;5.28;;;;;;;13.12;80.17;93325.56;4991616;28;20245;-78
2023/05/17 02:19:34;;;;;;;13.70;5.85;;;;;;;13.08;80.31;93330.03;5009231;28;20072;-78
2023/05/17 02:21:59;;;;;;;18.63;5.30;;;;;;;13.01;80.44;93330.63;5009265;28;20072;-78
2023/05/17 02:24:25;;;;;;;13.23;5.10;;;;;;;12.94;80.41;93325.84;5009042;28;20258;-79
2023/05/17 02:26:51;;;;;;;14.75;6.35;;;;;;;12.85;80.64;93322.56;5005337;28;20033;-78
2023/05/17 02:29:16;;;;;;;14.98;5.43;;;;;;;12.84;81.14;93319.13;5005634;28;20037;-78
2023/05/17 02:31:42;;;;;;;14.90;5.22;;;;;;;12.82;81.15;93321.34;5005940;28;20026;-78
2023/05/17 02:34:07;;;;;;;18.73;7.18;;;;;;;12.74;81.03;93329.50;4988700;28;20256;-78
2023/05/17 02:36:33;;;;;;;14.95;7.40;;;;;;;12.64;81.24;93328.84;5005144;28;20046;-77
2023/05/17 02:38:59;;;;;;;17.85;5.95;;;;;;;12.62;81.62;93328.41;5005522;28;20037;-76
2023/05/17 02:41:24;;;;;;;15.95;6.18;;;;;;;12.62;81.84;93333.78;5005651;28;20030;-76
2023/05/17 02:43:50;;;;;;;17.33;6.05;;;;;;;12.63;81.67;93329.19;5005500;28;20258;-77
2023/05/17 02:46:18;;;;;;;12.77;5.03;;;;;;;12.63;81.66;93342.56;5005414;28;20068;-77
2023/05/17 02:48:46;;;;;;;34.28;6.32;;;;;;;12.61;81.68;93340.22;5005236;28;20343;-77
2023/05/17 02:51:11;;;;;;;18.08;6.88;;;;;;;12.62;81.37;93351.72;5005428;28;20030;-77
2023/05/17 02:53:37;;;;;;;20.58;6.97;;;;;;;12.59;81.32;93347.78;5005697;28;20044;-76
2023/05/17 02:56:02;;;;;;;22.50;6.82;;;;;;;12.60;81.23;93359.28;5005788;28;20317;-77
2023/05/17 02:58:28;;;;;;;18.60;6.78;;;;;;;12.57;81.21;93358.06;5005384;28;20029;-77
2023/05/17 03:00:53;;;;;;;19.45;6.72;;;;;;;12.49;81.41;93358.94;5005402;28;20018;-77
2023/05/17 03:03:22;;;;;;;22.55;6.70;;;;;;;12.43;81.74;93362.97;5005091;28;20026;-77
2023/05/17 03:05:47;;;;;;;17.67;8.32;;;;;;;12.43;81.82;93369.09;5005341;28;20015;-77
2023/05/17 03:08:13;;;;;;;19.40;8.82;;;;;;;12.47;81.69;93374.56;5005336;28;20331;-77
2023/05/17 03:10:38;;;;;;;20.15;8.20;;;;;;;12.42;81.91;93372.88;5004857;28;20030;-77
2023/05/17 03:13:04;;;;;;;21.13;8.18;;;;;;;12.42;81.80;93372.13;5004817;28;20030;-78
2023/05/17 03:15:29;;;;;;;20.45;7.00;;;;;;;12.45;81.73;93382.13;5005013;28;20072;-78
2023/05/17 03:17:58;;;;;;;16.13;7.53;;;;;;;12.45;81.61;93388.25;5004885;28;20069;-78
2023/05/17 03:20:24;;;;;;;19.65;8.10;;;;;;;12.43;81.88;93385.13;5005069;28;20026;-78
2023/05/17 03:22:49;;;;;;;15.68;7.38;;;;;;;12.43;81.87;93381.69;5004619;28;20060;-79
2023/05/17 03:25:15;;;;;;;20.50;6.90;;;;;;;12.43;81.89;93384.34;5004251;28;20027;-78
2023/05/17 03:27:40;;;;;;;19.33;6.85;;;;;;;12.41;81.76;93390.03;5004923;28;20034;-77
2023/05/17 03:30:07;;;;;;;23.10;7.53;;;;;;;12.38;81.88;93388.03;5004708;28;20368;-77
2023/05/17 03:32:32;;;;;;;23.38;6.72;;;;;;;12.41;81.90;93391.94;5004542;28;20046;-78
2023/05/17 03:34:58;;;;;;;16.00;7.40;;;;;;;12.39;81.74;93384.25;5004606;28;20042;-78
2023/05/17 03:37:23;;;;;;;20.05;7.57;;;;;;;12.41;81.72;93384.69;5004142;28;20034;-79
2023/05/17 03:39:49;;;;;;;20.20;7.05;;;;;;;12.39;81.81;93386.13;5004671;28;20096;-79
2023/05/17 03:42:15;;;;;;;19.58;6.88;;;;;;;12.40;81.91;93385.81;5004800;28;20026;-78
2023/05/17 03:44:40;;;;;;;32.78;7.43;;;;;;;12.41;82.02;93384.69;5004492;28;20215;-78
2023/05/17 03:47:06;;;;;;;16.27;7.22;;;;;;;12.46;82.04;93386.38;5004590;28;20109;-78
2023/05/17 03:49:33;;;;;;;21.02;8.52;;;;;;;12.46;82.00;93370.34;5004575;28;20022;-77
2023/05/17 03:51:58;;;;;;;18.58;7.18;;;;;;;12.48;82.17;93376.13;5004247;28;20315;-78
2023/05/17 03:54:23;;;;;;;19.67;7.25;;;;;;;12.52;82.08;93387.69;5003603;28;20049;-78
2023/05/17 03:56:49;;;;;;;16.50;7.13;;;;;;;12.54;81.98;93379.34;5004162;28;20022;-77
2023/05/17 03:59:15;;;;;;;26.25;7.85;;;;;;;12.55;82.01;93379.00;5004361;28;20022;-78
2023/05/17 04:01:41;;;;;;;15.68;6.72;;;;;;;12.55;82.03;93380.91;5003823;28;20248;-78
2023/05/17 04:04:07;;;;;;;15.80;6.70;;;;;;;12.57;82.09;93390.13;5003861;28;20308;-81
2023/05/17 04:06:32;;;;;;;27.83;8.40;;;;;;;12.60;82.33;93386.78;5004363;28;20026;-80
2023/05/17 04:08:58;;;;;;;24.70;7.88;;;;;;;12.63;82.47;93383.44;5003887;28;20038;-79
2023/05/17 04:11:26;;;;;;;31.45;9.73;;;;;;;12.67;82.62;93380.09;5003821;28;20022;-80
2023/05/17 04:13:52;;;;;;;23.13;11.40;;;;;;;12.73;82.48;93378.75;5003827;28;20026;-79
2023/05/17 04:16:17;;;;;;;22.10;11.05;;;;;;;12.81;82.47;93383.19;5003796;28;20140;-79
2023/05/17 04:18:44;;;;;;;35.15;12.57;;;;;;;12.87;82.35;93378.38;5003056;28;20108;-79
2023/05/17 04:21:09;;;;;;;30.13;9.65;;;;;;;12.96;82.00;93379.78;5003661;28;20022;-78
2023/05/17 04:23:35;;;;;;;26.65;10.18;;;;;;;13.07;81.80;93388.13;5003636;28;20313;-78
2023/05/17 04:26:02;;;;;;;25.85;11.27;;;;;;;13.11;81.62;93374.84;5003755;28;20026;-78
2023/05/17 04:28:27;;;;;;;25.50;12.48;;;;;;;13.15;81.20;93383.75;5003228;28;20033;-78
2023/05/17 04:30:53;;;;;;;30.05;12.70;;;;;;;13.25;81.10;93375.25;5003375;28;20018;-78
2023/05/17 04:33:18;;;;;;;25.75;12.43;;;;;;;13.31;80.65;93375.78;5003548;28;20018;-78
2023/05/17 04:35:45;;;;;;;29.95;12.63;;;;;;;13.38;81.06;93384.78;5003319;28;20052;-78
2023/05/17 04:38:11;;;;;;;36.38;16.02;;;;;;;13.49;80.98;93370.91;5003619;28;20368;-78
2023/05/17 04:40:37;;;;;;;26.15;13.70;;;;;;;13.55;80.18;93377.56;5003053;28;20025;-78
2023/05/17 04:43:02;;;;;;;32.45;13.48;;;;;;;13.62;80.19;93383.13;5003706;28;20093;-78
2023/05/17 04:45:28;;;;;;;34.00;14.50;;;;;;;13.70;79.99;93384.88;5003094;28;20033;-77
2023/05/17 04:47:54;;;;;;;36.95;15.55;;;;;;;13.81;79.52;93379.78;5003007;28;20030;-77
2023/05/17 04:50:20;;;;;;;35.83;15.63;;;;;;;13.94;78.64;93380.47;5002432;28;20060;-77
2023/05/17 04:52:45;;;;;;;33.25;13.95;;;;;;;14.03;78.15;93371.13;5003193;28;20046;-77
2023/05/17 04:55:11;;;;;;;32.53;14.38;;;;;;;14.10;77.80;93375.13;4985321;28;20093;-78
2023/05/17 04:57:37;;;;;;;26.83;14.00;;;;;;;14.18;77.76;93380.28;5003453;28;20033;-77
2023/05/17 05:00:08;;;;;;;29.92;13.52;;;;;;;14.28;77.34;93370.19;5003251;28;20311;-77
2023/05/17 05:02:34;;;;;;;29.08;15.57;;;;;;;14.37;76.89;93376.13;5003163;28;20093;-77
2023/05/17 05:04:59;;;;;;;49.05;15.13;;;;;;;14.45;76.03;93381.31;5003304;28;20042;-77
2023/05/17 05:07:25;;;;;;;22.75;14.30;;;;;;;14.51;75.61;93376.47;5003072;28;20201;-77
2023/05/17 05:09:50;;;;;;;36.17;14.32;;;;;;;14.56;75.56;93386.16;5003070;28;20065;-77
2023/05/17 05:12:17;;;;;;;31.73;15.60;;;;;;;14.60;75.57;93393.16;5002219;28;20037;-77
2023/05/17 05:14:42;;;;;;;29.02;14.40;;;;;;;14.71;75.37;93393.38;4984974;28;20045;-77
2023/05/17 05:17:08;;;;;;;35.65;15.05;;;;;;;14.78;75.33;93395.47;5002947;28;20261;-76
2023/05/17 05:19:34;;;;;;;24.85;13.38;;;;;;;14.87;75.29;93398.72;5002334;28;20228;-76
2023/05/17 05:21:59;;;;;;;28.13;14.13;;;;;;;14.96;75.15;93393.94;5002287;28;20044;-76
2023/05/17 05:24:25;;;;;;;32.80;13.80;;;;;;;15.04;74.68;93395.66;5002929;28;20018;-76
2023/05/17 05:26:50;;;;;;;31.33;12.95;;;;;;;15.17;73.35;93392.81;5002500;28;20097;-76
2023/05/17 05:29:17;;;;;;;34.50;13.93;;;;;;;15.27;73.25;93386.88;4985605;28;20331;-76
2023/05/17 05:31:42;;;;;;;25.73;14.35;;;;;;;15.36;72.95;93390.13;5002822;28;20026;-77
2023/05/17 05:34:08;;;;;;;30.35;13.50;;;;;;;15.51;72.39;93388.50;5002847;28;20026;-78
2023/05/17 05:36:33;;;;;;;24.65;12.40;;;;;;;15.60;71.81;93382.91;5002812;28;20109;-79
2023/05/17 05:38:59;;;;;;;33.13;13.95;;;;;;;15.69;70.86;93394.19;5002796;28;20022;-78
2023/05/17 05:41:24;;;;;;;28.38;12.98;;;;;;;15.82;69.74;93398.31;5002852;28;20030;-78
2023/05/17 05:43:50;;;;;;;28.02;12.68;;;;;;;15.96;69.05;93397.00;5002269;28;20029;-76
2023/05/17 05:46:15;;;;;;;24.52;12.45;;;;;;;16.05;68.86;93403.69;5002658;28;20347;-78
2023/05/17 05:48:41;;;;;;;27.27;12.52;;;;;;;16.21;68.79;93403.56;5002789;28;20018;-78
2023/05/17 05:51:06;;;;;;;20.67;11.23;;;;;;;16.33;67.71;93407.22;5002533;28;20229;-79
2023/05/17 05:53:32;;;;;;;28.83;12.30;;;;;;;16.40;68.00;93400.00;5002714;28;20105;-79
2023/05/17 05:55:58;;;;;;;29.95;13.40;;;;;;;16.51;67.62;93402.13;5002586;28;20033;-78
2023/05/17 05:58:23;;;;;;;28.17;11.30;;;;;;;16.60;66.76;93405.31;4985016;28;20018;-79
2023/05/17 06:00:49;;;;;;;23.52;11.95;;;;;;;16.71;66.41;93413.53;4986884;28;20164;-78
2023/05/17 06:03:14;;;;;;;22.83;12.15;;;;;;;16.83;66.01;93418.75;5006194;28;20057;-78
2023/05/17 06:05:40;;;;;;;21.40;11.07;;;;;;;16.97;65.53;93410.09;5006301;28;20085;-78
2023/05/17 06:08:05;;;;;;;17.17;10.50;;;;;;;16.99;65.31;93411.28;5006190;28;20071;-77
2023/05/17 06:10:31;;;;;;;26.60;9.82;;;;;;;17.07;65.41;93408.69;5006412;28;20038;-77
2023/05/17 06:12:57;;;;;;;18.90;9.88;;;;;;;17.12;64.63;93414.53;5005860;28;20038;-77
2023/05/17 06:15:22;;;;;;;24.90;9.98;;;;;;;17.20;64.14;93410.03;4988658;28;20216;-77
2023/05/17 06:17:47;;;;;;;33.90;10.65;;;;;;;17.30;64.57;93412.09;5005869;28;20339;-77
2023/05/17 06:20:15;;;;;;;28.02;10.48;;;;;;;17.37;63.76;93414.84;5005789;28;20085;-77
2023/05/17 06:22:41;;;;;;;23.65;9.20;;;;;;;17.46;63.54;93414.56;5005642;28;20023;-76
2023/05/17 06:25:07;;;;;;;25.63;10.00;;;;;;;17.54;63.19;93421.56;5005713;28;20077;-77
2023/05/17 06:27:32;;;;;;;24.38;9.65;;;;;;;17.70;62.69;93420.63;5006030;28;20026;-78
2023/05/17 06:29:59;;;;;;;23.98;9.75;;;;;;;17.79;63.46;93421.09;5005656;28;20101;-78
2023/05/17 06:32:24;;;;;;;23.27;8.98;;;;;;;17.88;62.73;93424.31;5005864;28;20093;-79
2023/05/17 06:34:50;;;;;;;26.77;9.43;;;;;;;17.95;63.80;93428.97;4988010;28;20050;-78
2023/05/17 06:37:16;;;;;;;21.77;8.85;;;;;;;18.00;64.01;93417.88;5005500;28;20030;-79
2023/05/17 06:39:41;;;;;;;16.50;9.40;;;;;;;18.10;62.85;93424.53;5005817;28;20030;-79
2023/05/17 06:42:07;;;;;;;18.58;9.27;;;;;;;18.18;62.77;93418.81;5005787;28;20022;-84
2023/05/17 06:44:32;;;;;;;23.67;8.80;;;;;;;18.28;62.90;93425.47;5005918;28;20029;-81
2023/05/17 06:46:59;;;;;;;18.70;9.80;;;;;;;18.24;61.42;93414.63;5005742;28;20026;-77
2023/05/17 06:49:25;;;;;;;23.65;10.05;;;;;;;18.35;61.43;93422.03;5005880;28;20030;-75
2023/05/17 06:51:50;;;;;;;20.70;9.55;;;;;;;18.44;62.05;93412.50;5006108;28;20304;-77
2023/05/17 06:54:18;;;;;;;20.35;8.60;;;;;;;18.56;62.20;93424.13;5005509;28;20039;-76
2023/05/17 06:56:44;;;;;;;26.33;8.52;;;;;;;18.65;61.00;93409.16;5005674;28;20026;-75
2023/05/17 06:59:09;;;;;;;19.40;8.80;;;;;;;18.78;60.96;93419.66;5005760;28;20042;-76
2023/05/17 07:01:35;;;;;;;32.97;8.88;;;;;;;18.85;60.36;93408.97;5005763;28;20261;-77
2023/05/17 07:04:00;;;;;;;17.27;7.85;;;;;;;18.96;59.44;93419.81;5004945;28;20026;-79
2023/05/17 07:06:26;;;;;;;18.00;7.93;;;;;;;18.97;59.05;93424.84;5005352;28;20109;-79
2023/05/17 07:08:53;;;;;;;19.50;7.90;;;;;;;18.99;59.12;93422.56;5005442;28;20022;-80
2023/05/17 07:11:18;;;;;;;20.95;8.65;;;;;;;18.94;58.93;93425.59;5005381;28;20030;-80
2023/05/17 07:13:44;;;;;;;39.40;9.85;;;;;;;19.02;59.10;93440.69;5004509;28;20022;-80
2023/05/17 07:16:09;;;;;;;27.75;8.40;;;;;;;19.00;59.64;93442.22;5005433;28;20267;-81
2023/05/17 07:18:35;;;;;;;33.95;12.10;;;;;;;19.09;59.78;93428.38;5005365;28;20014;-81
2023/05/17 07:21:00;;;;;;;18.67;9.25;;;;;;;19.11;59.55;93434.97;5005336;28;20089;-80
2023/05/17 07:23:26;;;;;;;23.20;9.73;;;;;;;19.07;59.81;93446.88;5005176;28;20033;-80
2023/05/17 07:25:51;;;;;;;26.27;9.43;;;;;;;19.14;60.16;93433.44;5005140;28;20150;-79
2023/05/17 07:28:16;;;;;;;27.30;9.80;;;;;;;19.14;59.15;93441.53;5004901;28;20018;-79
2023/05/17 07:30:42;;;;;;;22.98;9.93;;;;;;;19.14;60.23;93450.41;5005206;28;20315;-79
2023/05/17 07:33:07;;;;;;;22.00;9.98;;;;;;;19.14;59.15;93439.59;5004935;28;20101;-79
2023/05/17 07:35:33;;;;;;;24.23;10.05;;;;;;;19.13;59.46;93440.78;4987870;28;20026;-79
2023/05/17 07:37:58;;;;;;;19.80;10.10;;;;;;;19.19;59.40;93438.47;5005173;28;20319;-81
2023/05/17 07:40:24;;;;;;;18.50;9.95;;;;;;;19.24;60.07;93449.69;5004940;28;20090;-81
2023/05/17 07:42:50;;;;;;;21.58;10.45;;;;;;;19.32;60.49;93445.13;5005018;28;20435;-81
2023/05/17 07:45:15;;;;;;;24.98;9.45;;;;;;;19.40;58.98;93443.22;5011530;28;20034;-82
2023/05/17 07:47:40;;;;;;;18.52;9.52;;;;;;;19.55;59.30;93434.00;4991102;28;20025;-83
2023/05/17 07:50:06;;;;;;;36.22;10.70;;;;;;;19.62;59.46;93435.97;5005702;28;20093;-82
2023/05/17 07:52:32;;;;;;;18.85;10.32;;;;;;;19.65;58.92;93443.31;4987471;28;20197;-81
2023/05/17 07:54:57;;;;;;;27.58;8.93;;;;;;;19.70;58.88;93437.56;5004335;28;20042;-83
2023/05/17 07:57:23;;;;;;;20.27;8.70;;;;;;;19.80;58.92;93444.97;5004662;28;20041;-82
2023/05/17 07:59:48;;;;;;;16.90;8.25;;;;;;;19.87;58.28;93436.09;5004158;28;20068;-80
2023/05/17 08:02:14;;;;;;;20.80;8.70;;;;;;;19.98;57.32;93445.00;5004254;28;20045;-80
2023/05/17 08:04:40;;;;;;;22.35;8.57;;;;;;;20.04;56.79;93451.59;5004467;28;20310;-78
2023/05/17 08:07:06;;;;;;;15.77;8.73;;;;;;;20.01;56.53;93441.53;5004126;28;20041;-79
2023/05/17 08:09:31;;;;;;;24.63;9.40;;;;;;;20.05;56.89;93441.56;5004513;28;20037;-80
2023/05/17 08:11:57;;;;;;;16.52;8.68;;;;;;;20.12;57.51;93436.16;5004160;28;20220;-81
2023/05/17 08:14:23;;;;;;;17.40;7.97;;;;;;;20.22;56.82;93445.44;5003972;28;20094;-81
2023/05/17 08:16:50;;;;;;;18.42;9.10;;;;;;;20.22;57.51;93437.34;5004093;28;20022;-80
2023/05/17 08:19:16;;;;;;;30.73;8.10;;;;;;;20.30;56.51;93435.41;5003020;28;20034;-79
2023/05/17 08:21:43;;;;;;;16.23;8.00;;;;;;;20.43;57.09;93439.28;5004307;28;20224;-78
2023/05/17 08:24:08;;;;;;;21.25;9.48;;;;;;;20.54;56.27;93439.31;5003287;28;20026;-79
2023/05/17 08:26:34;;;;;;;21.92;8.20;;;;;;;20.70;55.60;93439.72;4986823;28;20331;-79
2023/05/17 08:29:01;;;;;;;28.63;9.27;;;;;;;20.83;54.91;93430.03;5003778;28;20240;-78
2023/05/17 08:31:27;;;;;;;22.52;8.23;;;;;;;21.02;54.73;93431.56;5003747;28;20269;-78
2023/05/17 08:33:53;;;;;;;21.55;8.35;;;;;;;21.17;53.67;93431.56;5002378;28;20049;-78
2023/05/17 08:36:19;;;;;;;21.23;8.10;;;;;;;21.27;53.25;93425.31;5002592;28;20022;-79
2023/05/17 08:38:45;;;;;;;21.27;8.18;;;;;;;21.42;52.78;93436.91;4986201;28;20316;-80
2023/05/17 08:41:12;;;;;;;18.73;7.63;;;;;;;21.48;52.33;93445.44;5002351;28;20026;-80
2023/05/17 08:43:38;;;;;;;20.73;7.28;;;;;;;21.44;51.88;93427.22;5002028;28;20026;-79
2023/05/17 08:46:04;;;;;;;18.85;6.82;;;;;;;21.44;51.78;93431.88;5001906;28;20045;-81
2023/05/17 08:48:30;;;;;;;15.25;7.38;;;;;;;21.52;52.15;93438.06;5002068;28;20320;-80
2023/05/17 08:50:56;;;;;;;17.15;7.22;;;;;;;21.54;51.43;93424.88;5000482;28;20022;-81
2023/05/17 08:53:24;;;;;;;18.45;7.35;;;;;;;21.59;51.22;93427.19;5001552;28;20262;-80
2023/05/17 08:55:50;;;;;;;18.23;7.63;;;;;;;21.52;51.22;93438.81;5002385;28;20093;-82
2023/05/17 08:58:20;;;;;;;15.85;7.15;;;;;;;21.44;51.91;93429.94;5003741;28;20041;-82
2023/05/17 09:00:48;;;;;;;17.70;7.65;;;;;;;21.38;51.95;93433.41;5003282;28;20201;-80
2023/05/17 09:03:17;;;;;;;26.02;7.75;;;;;;;21.34;51.33;93436.13;5003636;28;20034;-82
2023/05/17 09:05:44;;;;;;;22.38;6.93;;;;;;;21.21;52.48;93435.78;5003603;28;20023;-82
2023/05/17 09:08:12;;;;;;;20.10;7.30;;;;;;;21.19;52.40;93434.63;5003436;28;20169;-81
2023/05/17 09:10:39;;;;;;;20.80;7.47;;;;;;;21.28;52.23;93431.50;5003441;28;20275;-80
2023/05/17 09:13:05;;;;;;;20.55;6.95;;;;;;;21.28;51.95;93426.84;5003422;28;20387;-81
2023/05/17 09:15:33;;;;;;;25.98;7.53;;;;;;;21.38;51.47;93433.41;5003086;28;20030;-81
2023/05/17 09:17:58;;;;;;;18.65;8.10;;;;;;;21.42;51.49;93434.19;5003173;28;20022;-81
2023/05/17 09:20:35;;;;;;;23.92;7.68;;;;;;;21.52;50.77;93427.22;5003336;28;20097;-80
2023/05/17 09:23:01;;;;;;;17.35;7.45;;;;;;;21.65;49.89;93422.88;5003341;28;20049;-81
2023/05/17 09:25:29;;;;;;;24.67;7.50;;;;;;;21.64;50.78;93426.78;5003331;28;20022;-80
2023/05/17 09:27:56;;;;;;;18.92;7.85;;;;;;;21.59;50.37;93424.47;5003190;28;20030;-81
2023/05/17 09:30:29;;;;;;;20.45;6.90;;;;;;;21.64;50.87;93426.78;5003408;28;20077;-81
2023/05/17 09:32:54;;;;;;;25.52;8.02;;;;;;;21.63;50.48;93426.00;5003355;28;20029;-81
2023/05/17 09:35:30;;;;;;;17.83;6.70;;;;;;;21.61;50.31;93416.72;5003913;28;20026;-81
2023/05/17 09:38:16;;;;;;;17.63;7.28;;;;;;;21.57;50.52;93424.84;4989714;28;20268;-80
2023/05/17 09:40:46;;;;;;;20.55;6.40;;;;;;;21.56;50.88;93414.41;5006513;28;20366;-81
2023/05/17 09:43:13;;;;;;;24.17;7.95;;;;;;;21.56;51.86;93425.25;5006773;28;20259;-81
2023/05/17 09:45:39;;;;;;;24.58;8.18;;;;;;;21.60;51.96;93436.88;5007117;28;20019;-81
2023/05/17 09:48:16;;;;;;;19.48;7.07;;;;;;;21.49;51.92;93431.47;5007166;28;20034;-81
2023/05/17 09:50:45;;;;;;;16.38;7.80;;;;;;;21.54;52.18;93433.03;5007186;28;20320;-81
2023/05/17 09:53:29;;;;;;;16.95;7.20;;;;;;;21.37;52.15;93429.94;5006967;28;20080;-81
2023/05/17 09:56:00;;;;;;;18.73;6.93;;;;;;;21.33;52.58;93428.38;5006741;28;20065;-79
2023/05/17 09:58:27;;;;;;;20.52;8.30;;;;;;;21.34;52.42;93430.72;5005668;28;20038;-80
2023/05/17 10:01:00;;;;;;;19.08;7.85;;;;;;;21.41;52.12;93422.56;5006862;28;20053;-80
2023/05/17 10:03:37;;;;;;;15.45;6.70;;;;;;;21.36;51.49;93425.69;5006906;28;20151;-81
2023/05/17 10:06:08;;;;;;;23.13;7.15;;;;;;;21.36;52.28;93419.50;5006672;28;20193;-80
2023/05/17 10:08:37;;;;;;;25.05;8.57;;;;;;;21.30;52.17;93429.94;5006674;28;20049;-81
2023/05/17 10:11:12;;;;;;;24.33;7.57;;;;;;;21.26;51.82;93415.63;5006647;28;20260;-80
2023/05/17 10:13:48;;;;;;;22.27;7.32;;;;;;;21.21;51.91;93413.34;5006320;28;20042;-81
2023/05/17 10:16:15;;;;;;;20.75;6.80;;;;;;;21.13;51.88;93404.44;5006389;28;20022;-81
2023/05/17 10:18:40;;;;;;;17.17;7.68;;;;;;;21.05;52.03;93392.09;5006380;28;20022;-81
2023/05/17 10:21:07;;;;;;;21.40;7.38;;;;;;;20.92;52.69;93389.00;5006227;28;20249;-80
2023/05/17 10:23:34;;;;;;;14.93;6.53;;;;;;;20.76;53.06;93370.47;5006194;28;20026;-80
2023/05/17 10:26:00;;;;;;;16.77;7.60;;;;;;;20.76;53.14;93369.69;5006027;28;20349;-81
2023/05/17 10:28:27;;;;;;;21.98;6.68;;;;;;;20.59;52.72;93353.06;5006072;28;20026;-81
2023/05/17 10:30:53;;;;;;;35.65;18.83;;;;;;;20.58;52.56;93351.53;5006078;28;20232;-81
2023/05/17 10:33:20;;;;;;;27.75;6.88;;;;;;;20.45;53.03;93339.53;5006033;28;20026;-81
2023/05/17 10:35:48;;;;;;;18.35;6.35;;;;;;;20.27;53.58;93336.81;5005879;28;20263;-81
2023/05/17 10:38:13;;;;;;;21.85;7.20;;;;;;;20.23;52.98;93326.00;5005814;28;20033;-81
2023/05/17 10:40:41;;;;;;;15.15;7.13;;;;;;;20.20;53.84;93318.66;5005978;28;20054;-80
2023/05/17 10:43:09;;;;;;;19.80;7.47;;;;;;;20.22;53.83;93315.56;5005833;28;20076;-80
2023/05/17 10:45:35;;;;;;;21.00;6.90;;;;;;;20.20;53.76;93305.13;5005993;28;20256;-80
2023/05/17 10:48:04;;;;;;;15.82;6.40;;;;;;;20.19;53.88;93300.91;5004615;28;20061;-81
2023/05/17 10:50:30;;;;;;;18.13;6.80;;;;;;;20.20;53.59;93286.19;5005693;28;20358;-80
2023/05/17 10:52:57;;;;;;;23.88;6.65;;;;;;;20.17;53.51;93286.19;5005265;28;20046;-81
2023/05/17 10:55:36;;;;;;;21.10;5.93;;;;;;;20.10;54.39;93270.75;5005357;28;20232;-81
2023/05/17 10:58:12;;;;;;;17.73;6.63;;;;;;;20.05;54.34;93271.13;5005562;28;20088;-79
2023/05/17 11:00:41;;;;;;;23.48;7.28;;;;;;;20.14;54.19;93271.50;5005605;28;20037;-79
2023/05/17 11:03:12;;;;;;;20.75;7.25;;;;;;;20.14;54.89;93263.41;5005563;28;20045;-79
2023/05/17 11:05:42;;;;;;;20.33;7.38;;;;;;;20.15;54.71;93262.25;5005081;28;20045;-79
2023/05/17 11:08:14;;;;;;;15.77;6.45;;;;;;;20.23;54.74;93271.09;5005131;28;20018;-79
2023/05/17 11:11:10;;;;;;;13.63;5.82;;;;;;;20.34;53.51;93277.28;5005192;28;20029;-80
2023/05/17 11:13:54;;;;;;;15.52;5.93;;;;;;;20.36;53.69;93276.91;5005476;28;20034;-80
2023/05/17 11:16:22;;;;;;;25.13;6.63;;;;;;;20.41;53.34;93287.31;5005118;28;20109;-78
2023/05/17 11:19:09;;;;;;;20.60;6.55;;;;;;;20.51;53.78;93293.88;4987427;28;20297;-79
2023/05/17 11:21:34;;;;;;;17.30;5.97;;;;;;;20.70;53.17;93300.84;5005178;28;20022;-79
2023/05/17 11:24:05;;;;;;;12.23;6.25;;;;;;;20.74;53.53;93307.81;5005121;28;20113;-79